sensor_id;sensor_type;location;lat;lon;timestamp;pressure;altitude;pressure_sealevel;temperature;humidity
54453;BME280;40363;52.270;10.546;2023-06-26T00:01:02;75274.75;;;-147.06;73.50
54453;BME280;40363;52.270;10.546;2023-06-26T00:03:30;75268.59;;;-147.06;74.03
54453;BME280;40363;52.270;10.546;2023-06-26T00:05:57;75276.81;;;-147.06;73.86
54453;BME280;40363;52.270;10.546;2023-06-26T00:08:26;75280.91;;;-147.06;74.07
54453;BME280;40363;52.270;10.546;2023-06-26T00:10:52;75282.97;;;-147.06;74.78
54453;BME280;40363;52.270;10.546;2023-06-26T00:13:19;75282.97;;;-147.06;74.26
54453;BME280;40363;52.270;10.546;2023-06-26T00:15:47;75268.59;;;-147.06;73.96
54453;BME280;40363;52.270;10.546;2023-06-26T00:18:14;75276.81;;;-147.06;73.03
54453;BME280;40363;52.270;10.546;2023-06-26T00:20:40;75274.75;;;-147.06;72.83
54453;BME280;40363;52.270;10.546;2023-06-26T00:23:07;75270.63;;;-147.06;73.16
54453;BME280;40363;52.270;10.546;2023-06-26T00:25:33;75285.03;;;-147.06;72.45
54453;BME280;40363;52.270;10.546;2023-06-26T00:28:00;75272.69;;;-147.06;73.02
54453;BME280;40363;52.270;10.546;2023-06-26T00:30:27;75272.69;;;-147.06;72.86
54453;BME280;40363;52.270;10.546;2023-06-26T00:32:55;75268.59;;;-147.06;73.19
54453;BME280;40363;52.270;10.546;2023-06-26T00:35:21;75274.75;;;-147.06;72.79
54453;BME280;40363;52.270;10.546;2023-06-26T00:37:48;75285.03;;;-147.06;72.12
54453;BME280;40363;52.270;10.546;2023-06-26T00:40:15;75278.84;;;-147.06;73.02
54453;BME280;40363;52.270;10.546;2023-06-26T00:42:41;75270.63;;;-147.06;71.76
54453;BME280;40363;52.270;10.546;2023-06-26T00:45:08;75260.38;;;-147.06;71.59
54453;BME280;40363;52.270;10.546;2023-06-26T00:47:34;75256.25;;;-147.06;71.93
54453;BME280;40363;52.270;10.546;2023-06-26T00:50:04;75264.47;;;-147.06;72.50
54453;BME280;40363;52.270;10.546;2023-06-26T00:52:31;75262.41;;;-147.06;71.47
54453;BME280;40363;52.270;10.546;2023-06-26T00:54:58;75260.38;;;-147.06;72.13
54453;BME280;40363;52.270;10.546;2023-06-26T00:57:25;75274.75;;;-147.06;72.14
54453;BME280;40363;52.270;10.546;2023-06-26T00:59:51;75272.69;;;-147.06;73.37
54453;BME280;40363;52.270;10.546;2023-06-26T01:02:18;75262.41;;;-147.06;73.10
54453;BME280;40363;52.270;10.546;2023-06-26T01:04:46;75285.03;;;-147.06;72.12
54453;BME280;40363;52.270;10.546;2023-06-26T01:07:15;75270.63;;;-147.06;73.01
54453;BME280;40363;52.270;10.546;2023-06-26T01:09:45;75289.13;;;-147.06;72.87
54453;BME280;40363;52.270;10.546;2023-06-26T01:12:12;75278.84;;;-147.06;72.80
54453;BME280;40363;52.270;10.546;2023-06-26T01:14:39;75295.28;;;-147.06;72.55
54453;BME280;40363;52.270;10.546;2023-06-26T01:17:06;75287.06;;;-147.06;72.79
54453;BME280;40363;52.270;10.546;2023-06-26T01:19:37;75289.13;;;-147.06;72.70
54453;BME280;40363;52.270;10.546;2023-06-26T01:22:11;75299.41;;;-147.06;73.19
54453;BME280;40363;52.270;10.546;2023-06-26T01:24:53;75317.91;;;-147.06;73.33
54453;BME280;40363;52.270;10.546;2023-06-26T01:27:24;75309.69;;;-147.06;73.50
54453;BME280;40363;52.270;10.546;2023-06-26T01:29:52;75309.69;;;-147.06;73.55
54453;BME280;40363;52.270;10.546;2023-06-26T01:32:21;75313.78;;;-147.06;73.29
54453;BME280;40363;52.270;10.546;2023-06-26T01:34:49;75313.78;;;-147.06;73.55
54453;BME280;40363;52.270;10.546;2023-06-26T01:37:15;75326.13;;;-147.06;73.14
54453;BME280;40363;52.270;10.546;2023-06-26T01:39:42;75305.56;;;-147.06;73.24
54453;BME280;40363;52.270;10.546;2023-06-26T01:42:08;75317.91;;;-147.06;72.95
54453;BME280;40363;52.270;10.546;2023-06-26T01:44:41;75303.53;;;-147.06;73.06
54453;BME280;40363;52.270;10.546;2023-06-26T01:47:11;75305.56;;;-147.06;73.30
54453;BME280;40363;52.270;10.546;2023-06-26T01:49:45;75311.75;;;-147.06;73.47
54453;BME280;40363;52.270;10.546;2023-06-26T01:52:19;75305.56;;;-147.06;73.72
54453;BME280;40363;52.270;10.546;2023-06-26T01:54:54;75301.47;;;-147.06;73.55
54453;BME280;40363;52.270;10.546;2023-06-26T01:57:22;75309.69;;;-147.06;73.32
54453;BME280;40363;52.270;10.546;2023-06-26T01:59:51;75301.47;;;-147.06;73.93
54453;BME280;40363;52.270;10.546;2023-06-26T02:02:18;75305.56;;;-147.06;74.29
54453;BME280;40363;52.270;10.546;2023-06-26T02:04:45;75313.78;;;-147.06;74.34
54453;BME280;40363;52.270;10.546;2023-06-26T02:07:14;75322.00;;;-147.06;74.58
54453;BME280;40363;52.270;10.546;2023-06-26T02:09:40;75317.91;;;-147.06;74.06
54453;BME280;40363;52.270;10.546;2023-06-26T02:12:07;75311.75;;;-147.06;74.11
54453;BME280;40363;52.270;10.546;2023-06-26T02:14:34;75334.34;;;-147.06;75.09
54453;BME280;40363;52.270;10.546;2023-06-26T02:17:02;75324.06;;;-147.06;74.51
54453;BME280;40363;52.270;10.546;2023-06-26T02:19:29;75340.50;;;-147.06;74.88
54453;BME280;40363;52.270;10.546;2023-06-26T02:21:55;75346.66;;;-147.06;75.51
54453;BME280;40363;52.270;10.546;2023-06-26T02:24:22;75344.63;;;-147.06;76.25
54453;BME280;40363;52.270;10.546;2023-06-26T02:26:48;75359.00;;;-147.06;76.59
54453;BME280;40363;52.270;10.546;2023-06-26T02:29:15;75352.84;;;-147.06;76.43
54453;BME280;40363;52.270;10.546;2023-06-26T02:31:42;75350.78;;;-147.06;76.60
54453;BME280;40363;52.270;10.546;2023-06-26T02:34:10;75350.78;;;-147.06;75.93
54453;BME280;40363;52.270;10.546;2023-06-26T02:36:36;75342.56;;;-147.06;75.22
54453;BME280;40363;52.270;10.546;2023-06-26T02:39:03;75340.50;;;-147.06;76.27
54453;BME280;40363;52.270;10.546;2023-06-26T02:41:29;75334.34;;;-147.06;75.21
54453;BME280;40363;52.270;10.546;2023-06-26T02:43:56;75334.34;;;-147.06;75.37
54453;BME280;40363;52.270;10.546;2023-06-26T02:46:22;75346.66;;;-147.06;74.75
54453;BME280;40363;52.270;10.546;2023-06-26T02:48:49;75348.72;;;-147.06;75.37
54453;BME280;40363;52.270;10.546;2023-06-26T02:51:17;75328.19;;;-147.06;74.27
54453;BME280;40363;52.270;10.546;2023-06-26T02:53:43;75346.66;;;-147.06;74.02
54453;BME280;40363;52.270;10.546;2023-06-26T02:56:10;75338.44;;;-147.06;74.22
54453;BME280;40363;52.270;10.546;2023-06-26T02:58:36;75340.50;;;-147.06;74.32
54453;BME280;40363;52.270;10.546;2023-06-26T03:01:03;75322.00;;;-147.06;74.74
54453;BME280;40363;52.270;10.546;2023-06-26T03:03:29;75350.78;;;-147.06;74.64
54453;BME280;40363;52.270;10.546;2023-06-26T03:06:05;75336.41;;;-147.06;74.36
54453;BME280;40363;52.270;10.546;2023-06-26T03:08:36;75330.22;;;-147.06;74.22
54453;BME280;40363;52.270;10.546;2023-06-26T03:11:02;75348.72;;;-147.06;74.64
54453;BME280;40363;52.270;10.546;2023-06-26T03:13:29;75346.66;;;-147.06;74.51
54453;BME280;40363;52.270;10.546;2023-06-26T03:15:55;75332.28;;;-147.06;74.99
54453;BME280;40363;52.270;10.546;2023-06-26T03:18:22;75330.22;;;-147.06;75.53
54453;BME280;40363;52.270;10.546;2023-06-26T03:20:48;75326.13;;;-147.06;75.17
54453;BME280;40363;52.270;10.546;2023-06-26T03:23:16;75338.44;;;-147.06;75.18
54453;BME280;40363;52.270;10.546;2023-06-26T03:25:43;75336.41;;;-147.06;74.11
54453;BME280;40363;52.270;10.546;2023-06-26T03:28:10;75328.19;;;-147.06;73.79
54453;BME280;40363;52.270;10.546;2023-06-26T03:30:37;75346.66;;;-147.06;73.70
54453;BME280;40363;52.270;10.546;2023-06-26T03:33:03;75326.13;;;-147.06;74.47
54453;BME280;40363;52.270;10.546;2023-06-26T03:35:30;75317.91;;;-147.06;74.36
54453;BME280;40363;52.270;10.546;2023-06-26T03:37:57;75328.19;;;-147.06;73.47
54453;BME280;40363;52.270;10.546;2023-06-26T03:40:23;75319.94;;;-147.06;74.93
54453;BME280;40363;52.270;10.546;2023-06-26T03:42:51;75324.06;;;-147.06;75.27
54453;BME280;40363;52.270;10.546;2023-06-26T03:45:18;75334.34;;;-147.06;73.68
54453;BME280;40363;52.270;10.546;2023-06-26T03:47:45;75326.13;;;-147.06;74.52
54453;BME280;40363;52.270;10.546;2023-06-26T03:50:13;75322.00;;;-147.06;75.16
54453;BME280;40363;52.270;10.546;2023-06-26T03:52:40;75315.84;;;-147.06;74.01
54453;BME280;40363;52.270;10.546;2023-06-26T03:55:08;75295.28;;;-147.06;73.29
54453;BME280;40363;52.270;10.546;2023-06-26T03:57:35;75313.78;;;-147.06;74.06
54453;BME280;40363;52.270;10.546;2023-06-26T04:00:04;75303.53;;;-147.06;73.47
54453;BME280;40363;52.270;10.546;2023-06-26T04:02:34;75305.56;;;-147.06;73.97
54453;BME280;40363;52.270;10.546;2023-06-26T04:05:00;75309.69;;;-147.06;73.76
54453;BME280;40363;52.270;10.546;2023-06-26T04:07:28;75311.75;;;-147.06;73.37
54453;BME280;40363;52.270;10.546;2023-06-26T04:09:56;75297.34;;;-147.06;73.47
54453;BME280;40363;52.270;10.546;2023-06-26T04:12:22;75301.47;;;-147.06;72.96
54453;BME280;40363;52.270;10.546;2023-06-26T04:14:49;75289.13;;;-147.06;72.57
54453;BME280;40363;52.270;10.546;2023-06-26T04:17:17;75282.97;;;-147.06;73.08
54453;BME280;40363;52.270;10.546;2023-06-26T04:19:44;75268.59;;;-147.06;72.60
54453;BME280;40363;52.270;10.546;2023-06-26T04:22:10;75252.16;;;-147.06;71.67
54453;BME280;40363;52.270;10.546;2023-06-26T04:24:37;75266.53;;;-147.06;71.87
54453;BME280;40363;52.270;10.546;2023-06-26T04:27:04;75254.19;;;-147.06;71.54
54453;BME280;40363;52.270;10.546;2023-06-26T04:29:31;75260.38;;;-147.06;71.22
54453;BME280;40363;52.270;10.546;2023-06-26T04:31:57;75248.03;;;-147.06;71.05
54453;BME280;40363;52.270;10.546;2023-06-26T04:34:25;75221.31;;;-147.06;70.96
54453;BME280;40363;52.270;10.546;2023-06-26T04:36:52;75213.09;;;-147.06;70.46
54453;BME280;40363;52.270;10.546;2023-06-26T04:39:19;75235.72;;;-147.06;70.46
54453;BME280;40363;52.270;10.546;2023-06-26T04:41:48;75229.53;;;-147.06;70.39
54453;BME280;40363;52.270;10.546;2023-06-26T04:44:15;75198.72;;;-147.06;69.34
54453;BME280;40363;52.270;10.546;2023-06-26T04:46:41;75174.06;;;-147.06;69.13
54453;BME280;40363;52.270;10.546;2023-06-26T04:49:09;75184.34;;;-147.06;69.00
54453;BME280;40363;52.270;10.546;2023-06-26T04:51:36;75165.84;;;-147.06;68.79
54453;BME280;40363;52.270;10.546;2023-06-26T04:54:06;75165.84;;;-147.06;68.89
54453;BME280;40363;52.270;10.546;2023-06-26T04:56:32;75161.75;;;-147.06;67.69
54453;BME280;40363;52.270;10.546;2023-06-26T04:58:59;75149.41;;;-147.06;68.14
54453;BME280;40363;52.270;10.546;2023-06-26T05:01:25;75149.41;;;-147.06;68.11
54453;BME280;40363;52.270;10.546;2023-06-26T05:03:53;75135.03;;;-147.06;67.56
54453;BME280;40363;52.270;10.546;2023-06-26T05:06:20;75124.75;;;-147.06;67.16
54453;BME280;40363;52.270;10.546;2023-06-26T05:08:48;75116.53;;;-147.06;67.26
54453;BME280;40363;52.270;10.546;2023-06-26T05:11:14;75102.16;;;-147.06;66.67
54453;BME280;40363;52.270;10.546;2023-06-26T05:13:41;75075.44;;;-147.06;65.89
54453;BME280;40363;52.270;10.546;2023-06-26T05:16:08;75063.13;;;-147.06;65.87
54453;BME280;40363;52.270;10.546;2023-06-26T05:18:35;75067.22;;;-147.06;65.67
54453;BME280;40363;52.270;10.546;2023-06-26T05:21:02;75050.78;;;-147.06;65.43
54453;BME280;40363;52.270;10.546;2023-06-26T05:23:31;75046.69;;;-147.06;64.70
54453;BME280;40363;52.270;10.546;2023-06-26T05:25:59;75042.56;;;-147.06;64.96
54453;BME280;40363;52.270;10.546;2023-06-26T05:28:27;75013.81;;;-147.06;63.70
54453;BME280;40363;52.270;10.546;2023-06-26T05:30:54;74985.03;;;-147.06;62.68
54453;BME280;40363;52.270;10.546;2023-06-26T05:33:23;74948.06;;;-147.06;61.67
54453;BME280;40363;52.270;10.546;2023-06-26T05:35:51;74933.69;;;-147.06;61.03
54453;BME280;40363;52.270;10.546;2023-06-26T05:38:19;74841.22;;;-147.06;58.92
54453;BME280;40363;52.270;10.546;2023-06-26T05:40:46;74894.63;;;-147.06;59.80
54453;BME280;40363;52.270;10.546;2023-06-26T05:43:14;74882.31;;;-147.06;59.32
54453;BME280;40363;52.270;10.546;2023-06-26T05:45:41;74859.72;;;-147.06;59.54
54453;BME280;40363;52.270;10.546;2023-06-26T05:48:08;74896.69;;;-147.06;59.92
54453;BME280;40363;52.270;10.546;2023-06-26T05:50:35;74867.94;;;-147.06;60.00
54453;BME280;40363;52.270;10.546;2023-06-26T05:53:02;74872.03;;;-147.06;60.36
54453;BME280;40363;52.270;10.546;2023-06-26T05:55:29;74867.94;;;-147.06;59.88
54453;BME280;40363;52.270;10.546;2023-06-26T05:57:58;74841.22;;;-147.06;59.53
54453;BME280;40363;52.270;10.546;2023-06-26T06:00:27;74816.56;;;-147.06;58.65
54453;BME280;40363;52.270;10.546;2023-06-26T06:02:54;74775.47;;;-147.06;57.52
54453;BME280;40363;52.270;10.546;2023-06-26T06:05:21;74759.03;;;-147.06;57.03
54453;BME280;40363;52.270;10.546;2023-06-26T06:07:47;74720.00;;;-147.06;56.66
54453;BME280;40363;52.270;10.546;2023-06-26T06:10:14;74676.88;;;-147.06;55.89
54453;BME280;40363;52.270;10.546;2023-06-26T06:12:41;74580.31;;;-147.06;53.60
54453;BME280;40363;52.270;10.546;2023-06-26T06:15:08;74496.06;;;-147.06;51.07
54453;BME280;40363;52.270;10.546;2023-06-26T06:17:35;74438.56;;;-147.06;49.02
54453;BME280;40363;52.270;10.546;2023-06-26T06:20:03;74465.25;;;-147.06;49.56
54453;BME280;40363;52.270;10.546;2023-06-26T06:22:30;74420.06;;;-147.06;48.15
54453;BME280;40363;52.270;10.546;2023-06-26T06:24:56;74403.63;;;-147.06;48.40
54453;BME280;40363;52.270;10.546;2023-06-26T06:27:23;74286.53;;;-147.06;46.58
54453;BME280;40363;52.270;10.546;2023-06-26T06:29:49;74183.81;;;-147.06;44.87
54453;BME280;40363;52.270;10.546;2023-06-26T06:32:16;74161.22;;;-147.06;43.02
54453;BME280;40363;52.270;10.546;2023-06-26T06:34:44;74124.25;;;-147.06;43.10
54453;BME280;40363;52.270;10.546;2023-06-26T06:37:10;74171.50;;;-147.06;43.40
54453;BME280;40363;52.270;10.546;2023-06-26T06:39:37;74276.25;;;-147.06;45.74
54453;BME280;40363;52.270;10.546;2023-06-26T06:42:04;74395.41;;;-147.06;48.34
54453;BME280;40363;52.270;10.546;2023-06-26T06:44:31;74222.84;;;-147.06;45.89
54453;BME280;40363;52.270;10.546;2023-06-26T06:46:57;74148.91;;;-147.06;44.89
54453;BME280;40363;52.270;10.546;2023-06-26T06:49:24;74150.97;;;-147.06;44.91
54453;BME280;40363;52.270;10.546;2023-06-26T06:51:52;74019.50;;;-147.06;43.57
54453;BME280;40363;52.270;10.546;2023-06-26T06:54:19;74083.16;;;-147.06;43.61
54453;BME280;40363;52.270;10.546;2023-06-26T06:56:45;74146.84;;;-147.06;45.09
54453;BME280;40363;52.270;10.546;2023-06-26T06:59:12;74134.53;;;-147.06;44.33
54453;BME280;40363;52.270;10.546;2023-06-26T07:01:39;74130.41;;;-147.06;44.65
54453;BME280;40363;52.270;10.546;2023-06-26T07:04:06;74050.31;;;-147.06;42.76
54453;BME280;40363;52.270;10.546;2023-06-26T07:06:33;73920.91;;;-147.06;40.32
54453;BME280;40363;52.270;10.546;2023-06-26T07:09:01;73890.09;;;-147.06;39.79
54453;BME280;40363;52.270;10.546;2023-06-26T07:11:28;73770.94;;;-147.06;38.75
54453;BME280;40363;52.270;10.546;2023-06-26T07:13:55;73801.75;;;-147.06;38.90
54453;BME280;40363;52.270;10.546;2023-06-26T07:16:21;74060.56;;;-147.06;41.36
54453;BME280;40363;52.270;10.546;2023-06-26T07:18:48;73900.34;;;-147.06;40.25
54453;BME280;40363;52.270;10.546;2023-06-26T07:21:15;73773.00;;;-147.06;38.91
54453;BME280;40363;52.270;10.546;2023-06-26T07:23:41;73744.25;;;-147.06;38.61
54453;BME280;40363;52.270;10.546;2023-06-26T07:26:09;73670.31;;;-147.06;37.59
54453;BME280;40363;52.270;10.546;2023-06-26T07:28:36;73666.19;;;-147.06;37.63
54453;BME280;40363;52.270;10.546;2023-06-26T07:31:02;73853.13;;;-147.06;39.40
54453;BME280;40363;52.270;10.546;2023-06-26T07:33:29;73937.34;;;-147.06;40.69
54453;BME280;40363;52.270;10.546;2023-06-26T07:35:56;73970.19;;;-147.06;42.35
54453;BME280;40363;52.270;10.546;2023-06-26T07:38:22;73807.94;;;-147.06;40.53
54453;BME280;40363;52.270;10.546;2023-06-26T07:40:49;73723.72;;;-147.06;38.17
54453;BME280;40363;52.270;10.546;2023-06-26T07:43:19;73604.59;;;-147.06;36.67
54453;BME280;40363;52.270;10.546;2023-06-26T07:45:45;73555.28;;;-147.06;35.97
54453;BME280;40363;52.270;10.546;2023-06-26T07:48:12;73625.13;;;-147.06;36.26
54453;BME280;40363;52.270;10.546;2023-06-26T07:50:38;73551.19;;;-147.06;35.76
54453;BME280;40363;52.270;10.546;2023-06-26T07:53:05;73623.06;;;-147.06;36.39
54453;BME280;40363;52.270;10.546;2023-06-26T07:55:31;73621.03;;;-147.06;35.79
54453;BME280;40363;52.270;10.546;2023-06-26T07:57:58;73600.47;;;-147.06;35.51
54453;BME280;40363;52.270;10.546;2023-06-26T08:00:27;73501.91;;;-147.06;34.49
54453;BME280;40363;52.270;10.546;2023-06-26T08:02:54;73514.22;;;-147.06;34.20
54453;BME280;40363;52.270;10.546;2023-06-26T08:05:21;73545.03;;;-147.06;34.18
54453;BME280;40363;52.270;10.546;2023-06-26T08:07:47;73526.53;;;-147.06;34.04
54453;BME280;40363;52.270;10.546;2023-06-26T08:10:14;73565.56;;;-147.06;33.91
54453;BME280;40363;52.270;10.546;2023-06-26T08:12:40;73573.78;;;-147.06;32.81
54453;BME280;40363;52.270;10.546;2023-06-26T08:15:10;73618.97;;;-147.06;32.90
54453;BME280;40363;52.270;10.546;2023-06-26T08:17:38;73588.16;;;-147.06;32.30
54453;BME280;40363;52.270;10.546;2023-06-26T08:20:05;73594.31;;;-147.06;32.66
54453;BME280;40363;52.270;10.546;2023-06-26T08:22:34;73584.03;;;-147.06;32.68
54453;BME280;40363;52.270;10.546;2023-06-26T08:25:01;73594.31;;;-147.06;32.83
54453;BME280;40363;52.270;10.546;2023-06-26T08:27:28;73579.94;;;-147.06;32.89
54453;BME280;40363;52.270;10.546;2023-06-26T08:29:54;73579.94;;;-147.06;33.11
54453;BME280;40363;52.270;10.546;2023-06-26T08:32:21;73604.59;;;-147.06;32.28
54453;BME280;40363;52.270;10.546;2023-06-26T08:34:49;73596.38;;;-147.06;32.90
54453;BME280;40363;52.270;10.546;2023-06-26T08:37:16;73586.09;;;-147.06;32.65
54453;BME280;40363;52.270;10.546;2023-06-26T08:39:42;73602.53;;;-147.06;33.03
54453;BME280;40363;52.270;10.546;2023-06-26T08:42:09;73770.94;;;-147.06;34.47
54453;BME280;40363;52.270;10.546;2023-06-26T08:44:35;73812.03;;;-147.06;35.14
54453;BME280;40363;52.270;10.546;2023-06-26T08:47:03;73785.34;;;-147.06;34.74
54453;BME280;40363;52.270;10.546;2023-06-26T08:49:36;73807.94;;;-147.06;34.86
54453;BME280;40363;52.270;10.546;2023-06-26T08:52:11;73770.94;;;-147.06;34.67
54453;BME280;40363;52.270;10.546;2023-06-26T08:54:44;73809.97;;;-147.06;35.54
54453;BME280;40363;52.270;10.546;2023-06-26T08:57:15;73756.56;;;-147.06;34.86
54453;BME280;40363;52.270;10.546;2023-06-26T08:59:44;73690.84;;;-147.06;34.31
54453;BME280;40363;52.270;10.546;2023-06-26T09:02:12;73701.13;;;-147.06;34.55
54453;BME280;40363;52.270;10.546;2023-06-26T09:04:39;73653.88;;;-147.06;33.98
54453;BME280;40363;52.270;10.546;2023-06-26T09:07:08;73633.34;;;-147.06;34.31
54453;BME280;40363;52.270;10.546;2023-06-26T09:09:34;73699.06;;;-147.06;34.67
54453;BME280;40363;52.270;10.546;2023-06-26T09:12:01;73721.66;;;-147.06;35.12
54453;BME280;40363;52.270;10.546;2023-06-26T09:14:28;73824.34;;;-147.06;36.05
54453;BME280;40363;52.270;10.546;2023-06-26T09:16:55;73760.69;;;-147.06;35.56
54453;BME280;40363;52.270;10.546;2023-06-26T09:19:22;73731.94;;;-147.06;35.20
54453;BME280;40363;52.270;10.546;2023-06-26T09:21:49;73701.13;;;-147.06;35.04
54453;BME280;40363;52.270;10.546;2023-06-26T09:24:18;73676.47;;;-147.06;34.53
54453;BME280;40363;52.270;10.546;2023-06-26T09:26:44;73658.00;;;-147.06;35.04
54453;BME280;40363;52.270;10.546;2023-06-26T09:29:11;73666.19;;;-147.06;34.58
54453;BME280;40363;52.270;10.546;2023-06-26T09:31:40;73608.69;;;-147.06;34.36
54453;BME280;40363;52.270;10.546;2023-06-26T09:34:06;73606.63;;;-147.06;34.27
54453;BME280;40363;52.270;10.546;2023-06-26T09:36:33;73588.16;;;-147.06;34.52
54453;BME280;40363;52.270;10.546;2023-06-26T09:39:01;73600.47;;;-147.06;34.66
54453;BME280;40363;52.270;10.546;2023-06-26T09:41:31;73608.69;;;-147.06;34.58
54453;BME280;40363;52.270;10.546;2023-06-26T09:44:01;73625.13;;;-147.06;34.77
54453;BME280;40363;52.270;10.546;2023-06-26T09:46:29;73635.41;;;-147.06;35.17
54453;BME280;40363;52.270;10.546;2023-06-26T09:49:00;73649.78;;;-147.06;35.18
54453;BME280;40363;52.270;10.546;2023-06-26T09:51:29;73758.63;;;-147.06;36.04
54453;BME280;40363;52.270;10.546;2023-06-26T09:53:56;73803.81;;;-147.06;36.86
54453;BME280;40363;52.270;10.546;2023-06-26T09:56:23;73801.75;;;-147.06;37.14
54453;BME280;40363;52.270;10.546;2023-06-26T09:58:52;73742.19;;;-147.06;37.07
54453;BME280;40363;52.270;10.546;2023-06-26T10:01:20;73723.72;;;-147.06;36.41
54453;BME280;40363;52.270;10.546;2023-06-26T10:03:47;73715.50;;;-147.06;36.56
54453;BME280;40363;52.270;10.546;2023-06-26T10:06:14;73723.72;;;-147.06;37.76
54453;BME280;40363;52.270;10.546;2023-06-26T10:08:44;73756.56;;;-147.06;37.60
54453;BME280;40363;52.270;10.546;2023-06-26T10:11:15;73701.13;;;-147.06;37.09
54453;BME280;40363;52.270;10.546;2023-06-26T10:13:43;73760.69;;;-147.06;37.16
54453;BME280;40363;52.270;10.546;2023-06-26T10:16:13;73781.22;;;-147.06;37.36
54453;BME280;40363;52.270;10.546;2023-06-26T10:18:43;73733.97;;;-147.06;37.12
54453;BME280;40363;52.270;10.546;2023-06-26T10:21:11;73764.78;;;-147.06;37.68
54453;BME280;40363;52.270;10.546;2023-06-26T10:23:40;73803.81;;;-147.06;37.89
54453;BME280;40363;52.270;10.546;2023-06-26T10:26:09;73857.22;;;-147.06;38.65
54453;BME280;40363;52.270;10.546;2023-06-26T10:28:38;73830.53;;;-147.06;38.02
54453;BME280;40363;52.270;10.546;2023-06-26T10:31:07;73826.41;;;-147.06;38.41
54453;BME280;40363;52.270;10.546;2023-06-26T10:33:37;73795.59;;;-147.06;38.32
54453;BME280;40363;52.270;10.546;2023-06-26T10:36:13;73859.28;;;-147.06;38.70
54453;BME280;40363;52.270;10.546;2023-06-26T10:38:48;73935.28;;;-147.06;39.27
54453;BME280;40363;52.270;10.546;2023-06-26T10:41:19;73892.13;;;-147.06;39.05
54453;BME280;40363;52.270;10.546;2023-06-26T10:43:49;73998.94;;;-147.06;40.79
54453;BME280;40363;52.270;10.546;2023-06-26T10:46:15;74048.25;;;-147.06;41.41
54453;BME280;40363;52.270;10.546;2023-06-26T10:48:57;74077.00;;;-147.06;42.63
54453;BME280;40363;52.270;10.546;2023-06-26T10:51:25;74093.44;;;-147.06;43.19
54453;BME280;40363;52.270;10.546;2023-06-26T10:53:54;74120.16;;;-147.06;43.84
54453;BME280;40363;52.270;10.546;2023-06-26T10:56:21;74128.38;;;-147.06;44.24
54453;BME280;40363;52.270;10.546;2023-06-26T10:58:48;74146.84;;;-147.06;44.77
54453;BME280;40363;52.270;10.546;2023-06-26T11:01:17;74150.97;;;-147.06;44.44
54453;BME280;40363;52.270;10.546;2023-06-26T11:03:45;74181.78;;;-147.06;44.75
54453;BME280;40363;52.270;10.546;2023-06-26T11:06:14;74202.31;;;-147.06;45.01
54453;BME280;40363;52.270;10.546;2023-06-26T11:08:44;74212.59;;;-147.06;45.24
54453;BME280;40363;52.270;10.546;2023-06-26T11:11:12;74208.47;;;-147.06;45.61
54453;BME280;40363;52.270;10.546;2023-06-26T11:13:39;74208.47;;;-147.06;45.41
54453;BME280;40363;52.270;10.546;2023-06-26T11:16:06;74192.03;;;-147.06;45.09
54453;BME280;40363;52.270;10.546;2023-06-26T11:18:33;74239.28;;;-147.06;45.58
54453;BME280;40363;52.270;10.546;2023-06-26T11:21:07;74298.88;;;-147.06;46.61
54453;BME280;40363;52.270;10.546;2023-06-26T11:23:36;74321.47;;;-147.06;46.72
54453;BME280;40363;52.270;10.546;2023-06-26T11:26:16;74313.25;;;-147.06;46.90
54453;BME280;40363;52.270;10.546;2023-06-26T11:28:48;74346.09;;;-147.06;47.48
54453;BME280;40363;52.270;10.546;2023-06-26T11:31:24;74354.31;;;-147.06;47.88
54453;BME280;40363;52.270;10.546;2023-06-26T11:33:52;74344.06;;;-147.06;48.06
54453;BME280;40363;52.270;10.546;2023-06-26T11:36:19;74335.84;;;-147.06;49.07
54453;BME280;40363;52.270;10.546;2023-06-26T11:38:52;74385.16;;;-147.06;50.61
54453;BME280;40363;52.270;10.546;2023-06-26T11:41:19;74401.56;;;-147.06;50.84
54453;BME280;40363;52.270;10.546;2023-06-26T11:43:46;74424.16;;;-147.06;50.74
54453;BME280;40363;52.270;10.546;2023-06-26T11:46:12;74430.34;;;-147.06;50.16
54453;BME280;40363;52.270;10.546;2023-06-26T11:48:39;74438.56;;;-147.06;50.32
54453;BME280;40363;52.270;10.546;2023-06-26T11:51:06;74442.66;;;-147.06;49.28
54453;BME280;40363;52.270;10.546;2023-06-26T11:53:39;74504.28;;;-147.06;49.13
54453;BME280;40363;52.270;10.546;2023-06-26T11:56:09;74547.44;;;-147.06;49.80
54453;BME280;40363;52.270;10.546;2023-06-26T11:58:36;74545.38;;;-147.06;49.90
54453;BME280;40363;52.270;10.546;2023-06-26T12:01:02;74623.44;;;-147.06;51.17
54453;BME280;40363;52.270;10.546;2023-06-26T12:03:29;74639.88;;;-147.06;52.00
54453;BME280;40363;52.270;10.546;2023-06-26T12:05:58;74697.41;;;-147.06;53.61
54453;BME280;40363;52.270;10.546;2023-06-26T12:08:26;74705.63;;;-147.06;54.33
54453;BME280;40363;52.270;10.546;2023-06-26T12:10:53;74722.06;;;-147.06;55.49
54453;BME280;40363;52.270;10.546;2023-06-26T12:13:21;74736.44;;;-147.06;55.88
54453;BME280;40363;52.270;10.546;2023-06-26T12:15:48;74750.81;;;-147.06;56.93
54453;BME280;40363;52.270;10.546;2023-06-26T12:18:15;74750.81;;;-147.06;57.24
54453;BME280;40363;52.270;10.546;2023-06-26T12:20:42;74777.53;;;-147.06;58.35
54453;BME280;40363;52.270;10.546;2023-06-26T12:23:12;74793.97;;;-147.06;59.53
54453;BME280;40363;52.270;10.546;2023-06-26T12:25:38;74789.84;;;-147.06;59.95
54453;BME280;40363;52.270;10.546;2023-06-26T12:28:15;74785.75;;;-147.06;60.37
54453;BME280;40363;52.270;10.546;2023-06-26T12:30:46;74791.91;;;-147.06;60.91
54453;BME280;40363;52.270;10.546;2023-06-26T12:33:14;74777.53;;;-147.06;60.91